createdAt,value
2023-07-27T00:00:42.408Z,10.90
2023-07-27T00:01:44.018Z,11.02
2023-07-27T00:02:45.769Z,11.12
2023-07-27T00:03:47.441Z,11.10
2023-07-27T00:04:49.133Z,11.19
2023-07-27T00:05:50.830Z,11.12
2023-07-27T00:06:52.425Z,11.17
2023-07-27T00:07:54.597Z,11.02
2023-07-27T00:08:58.116Z,10.95
2023-07-27T00:09:59.726Z,10.92
2023-07-27T00:11:01.290Z,10.91
2023-07-27T00:12:02.941Z,10.92
2023-07-27T00:13:04.568Z,10.82
2023-07-27T00:14:06.223Z,10.93
2023-07-27T00:15:08.258Z,10.86
2023-07-27T00:16:09.897Z,10.85
2023-07-27T00:17:11.543Z,10.80
2023-07-27T00:18:13.198Z,10.88
2023-07-27T00:19:14.809Z,10.94
2023-07-27T00:20:16.863Z,10.63
2023-07-27T00:21:18.466Z,10.88
2023-07-27T00:22:20.095Z,10.84
2023-07-27T00:23:21.780Z,10.95
2023-07-27T00:24:23.433Z,11.25
2023-07-27T00:25:25.103Z,11.02
2023-07-27T00:26:26.745Z,11.01
2023-07-27T00:27:28.406Z,10.84
2023-07-27T00:28:30.068Z,10.74
2023-07-27T00:29:31.687Z,10.74
2023-07-27T00:30:34.287Z,10.80
2023-07-27T00:31:36.040Z,10.96
2023-07-27T00:32:37.799Z,10.60
2023-07-27T00:33:39.469Z,10.77
2023-07-27T00:34:41.095Z,10.77
2023-07-27T00:35:42.699Z,10.67
2023-07-27T00:36:44.412Z,10.80
2023-07-27T00:37:46.079Z,10.57
2023-07-27T00:38:47.671Z,10.75
2023-07-27T00:39:49.322Z,10.70
2023-07-27T00:40:51.423Z,10.57
2023-07-27T00:41:53.266Z,10.59
2023-07-27T00:42:54.900Z,10.63
2023-07-27T00:43:56.553Z,10.50
2023-07-27T00:44:58.252Z,10.56
2023-07-27T00:46:00.198Z,10.66
2023-07-27T00:47:02.297Z,10.88
2023-07-27T00:48:05.918Z,10.80
2023-07-27T00:49:08.183Z,10.45
2023-07-27T00:50:10.104Z,10.58
2023-07-27T00:51:12.467Z,10.40
2023-07-27T00:52:14.262Z,10.34
2023-07-27T00:53:16.108Z,10.37
2023-07-27T00:54:17.976Z,10.53
2023-07-27T00:55:19.581Z,10.48
2023-07-27T00:56:21.664Z,10.29
2023-07-27T00:57:23.407Z,10.38
2023-07-27T00:58:25.069Z,10.21
2023-07-27T00:59:26.687Z,10.20
2023-07-27T01:00:28.911Z,10.13
2023-07-27T01:01:30.780Z,10.24
2023-07-27T01:02:32.470Z,10.29
2023-07-27T01:03:35.044Z,10.31
2023-07-27T01:04:36.836Z,10.51
2023-07-27T01:05:38.862Z,10.36
2023-07-27T01:06:40.831Z,10.27
2023-07-27T01:07:42.345Z,10.27
2023-07-27T01:08:44.642Z,10.19
2023-07-27T01:09:46.600Z,10.20
2023-07-27T01:10:50.798Z,10.51
2023-07-27T01:11:57.820Z,10.56
2023-07-27T01:13:06.353Z,10.26
2023-07-27T01:14:26.321Z,10.40
2023-07-27T01:15:31.586Z,10.41
2023-07-27T01:17:08.656Z,10.25
2023-07-27T01:18:17.144Z,10.54
2023-07-27T01:19:37.353Z,10.13
2023-07-27T01:20:47.758Z,10.08
2023-07-27T01:21:50.969Z,10.00
2023-07-27T01:23:26.673Z,10.12
2023-07-27T01:24:56.145Z,10.37
2023-07-27T01:26:19.140Z,10.29
2023-07-27T01:27:29.128Z,10.18
2023-07-27T01:29:18.812Z,10.22
2023-07-27T01:30:29.585Z,10.05
2023-07-27T01:31:42.545Z,10.09
2023-07-27T01:32:45.021Z,9.89
2023-07-27T01:33:47.867Z,9.87
2023-07-27T01:34:52.505Z,10.02
2023-07-27T01:36:07.700Z,10.09
2023-07-27T01:37:10.733Z,10.31
2023-07-27T01:38:12.568Z,10.44
2023-07-27T01:39:14.882Z,10.15
2023-07-27T01:40:16.517Z,10.22
2023-07-27T01:41:19.285Z,10.20
2023-07-27T01:42:20.797Z,10.49
2023-07-27T01:43:22.393Z,10.55
2023-07-27T01:44:25.428Z,10.61
2023-07-27T01:45:26.981Z,10.36
2023-07-27T01:46:30.570Z,10.45
2023-07-27T01:47:32.840Z,10.38
2023-07-27T01:48:35.864Z,10.76
2023-07-27T01:49:39.406Z,10.49
2023-07-27T01:50:42.017Z,10.25
2023-07-27T01:51:44.495Z,10.02
2023-07-27T01:52:46.233Z,10.24
2023-07-27T01:53:48.929Z,10.14
2023-07-27T01:54:50.522Z,10.02
2023-07-27T01:55:52.696Z,10.11
2023-07-27T01:56:56.148Z,10.35
2023-07-27T01:58:01.089Z,10.26
2023-07-27T01:59:03.060Z,10.05
2023-07-27T02:00:06.850Z,10.30
2023-07-27T02:01:15.968Z,10.55
2023-07-27T02:02:18.395Z,10.34
2023-07-27T02:03:19.923Z,10.31
2023-07-27T02:04:22.729Z,10.17
2023-07-27T02:05:25.388Z,10.05
2023-07-27T02:06:26.926Z,10.36
2023-07-27T02:07:28.656Z,10.48
2023-07-27T02:08:30.380Z,10.54
2023-07-27T02:09:32.536Z,10.65
2023-07-27T02:10:34.714Z,10.47
2023-07-27T02:11:36.895Z,10.76
2023-07-27T02:12:43.404Z,10.69
2023-07-27T02:14:09.783Z,10.42
2023-07-27T02:15:33.655Z,10.64
2023-07-27T02:16:39.220Z,10.61
2023-07-27T02:17:49.970Z,10.73
2023-07-27T02:18:52.126Z,10.31
2023-07-27T02:19:57.725Z,10.14
2023-07-27T02:20:59.582Z,10.11
2023-07-27T02:22:03.646Z,10.27
2023-07-27T02:23:07.971Z,9.93
2023-07-27T02:24:09.772Z,10.23
2023-07-27T02:25:12.130Z,9.91
2023-07-27T02:26:13.987Z,10.32
2023-07-27T02:27:15.613Z,10.03
2023-07-27T02:28:17.220Z,9.88
2023-07-27T02:29:18.847Z,9.92
2023-07-27T02:30:20.561Z,9.97
2023-07-27T02:31:22.237Z,9.96
2023-07-27T02:32:23.902Z,10.15
2023-07-27T02:33:27.058Z,10.09
2023-07-27T02:34:28.646Z,10.10
2023-07-27T02:35:30.231Z,10.26
2023-07-27T02:36:32.280Z,10.05
2023-07-27T02:37:34.098Z,9.97
2023-07-27T02:38:35.732Z,10.42
2023-07-27T02:39:37.330Z,10.35
2023-07-27T02:40:38.934Z,10.19
2023-07-27T02:41:42.287Z,10.77
2023-07-27T02:42:49.814Z,10.44
2023-07-27T02:43:51.417Z,10.21
2023-07-27T02:44:54.210Z,10.53
2023-07-27T02:46:00.609Z,10.53
2023-07-27T02:47:03.420Z,10.28
2023-07-27T02:48:06.066Z,10.11
2023-07-27T02:49:07.903Z,10.11
2023-07-27T02:50:09.659Z,10.56
2023-07-27T02:51:26.651Z,10.58
2023-07-27T02:52:32.901Z,10.12
2023-07-27T02:53:38.216Z,10.21
2023-07-27T02:54:48.476Z,10.22
2023-07-27T02:55:57.371Z,10.39
2023-07-27T02:56:59.002Z,10.06
2023-07-27T02:58:07.630Z,10.21
2023-07-27T02:59:10.986Z,10.16
2023-07-27T03:00:17.890Z,9.88
2023-07-27T03:01:22.781Z,9.88
2023-07-27T03:02:31.200Z,10.08
2023-07-27T03:03:34.482Z,9.92
2023-07-27T03:04:42.710Z,9.94
2023-07-27T03:05:46.479Z,10.18
2023-07-27T03:06:51.128Z,10.20
2023-07-27T03:07:54.991Z,10.38
2023-07-27T03:09:00.752Z,10.05
2023-07-27T03:10:02.609Z,10.02
2023-07-27T03:11:05.628Z,9.92
2023-07-27T03:12:07.836Z,9.99
2023-07-27T03:13:09.473Z,9.89
2023-07-27T03:14:11.229Z,10.09
2023-07-27T03:15:12.944Z,9.83
2023-07-27T03:16:14.623Z,9.84
2023-07-27T03:17:16.252Z,10.03
2023-07-27T03:18:18.746Z,10.14
2023-07-27T03:19:20.250Z,10.10
2023-07-27T03:20:21.865Z,10.21
2023-07-27T03:21:23.571Z,10.11
2023-07-27T03:22:25.148Z,9.87
2023-07-27T03:23:27.369Z,9.77
2023-07-27T03:24:29.107Z,9.92
2023-07-27T03:25:34.011Z,9.87
2023-07-27T03:26:37.870Z,9.85
2023-07-27T03:27:39.713Z,10.04
2023-07-27T03:28:44.392Z,10.02
2023-07-27T03:29:48.150Z,9.99
2023-07-27T03:30:49.743Z,10.04
2023-07-27T03:31:51.470Z,10.10
2023-07-27T03:32:53.085Z,9.85
2023-07-27T03:33:54.757Z,9.86
2023-07-27T03:34:56.426Z,10.02
2023-07-27T03:35:57.992Z,9.96
2023-07-27T03:36:59.583Z,9.94
2023-07-27T03:38:01.499Z,10.05
2023-07-27T03:39:03.164Z,9.95
2023-07-27T03:40:05.377Z,10.09
2023-07-27T03:41:07.097Z,10.55
2023-07-27T03:42:09.972Z,10.10
2023-07-27T03:43:11.805Z,9.94
2023-07-27T03:44:15.212Z,9.77
2023-07-27T03:45:17.464Z,9.80
2023-07-27T03:46:19.853Z,9.88
2023-07-27T03:47:21.518Z,10.09
2023-07-27T03:48:23.133Z,10.43
2023-07-27T03:49:24.762Z,10.04
2023-07-27T03:50:26.710Z,9.95
2023-07-27T03:51:28.360Z,9.98
2023-07-27T03:52:30.001Z,10.12
2023-07-27T03:53:32.198Z,10.12
2023-07-27T03:54:33.961Z,10.32
2023-07-27T03:55:35.657Z,10.16
2023-07-27T03:56:37.340Z,10.29
2023-07-27T03:57:39.052Z,10.20
2023-07-27T03:58:40.965Z,10.29
2023-07-27T03:59:42.628Z,10.15
2023-07-27T04:00:44.275Z,10.40
2023-07-27T04:01:46.041Z,10.53
2023-07-27T04:02:47.802Z,10.55
2023-07-27T04:03:49.476Z,10.64
2023-07-27T04:04:51.244Z,10.90
2023-07-27T04:05:53.205Z,10.95
2023-07-27T04:06:54.927Z,10.84
2023-07-27T04:07:56.722Z,10.64
2023-07-27T04:08:58.377Z,10.82
2023-07-27T04:10:00.029Z,10.56
2023-07-27T04:11:01.714Z,10.53
2023-07-27T04:12:03.468Z,10.39
2023-07-27T04:13:05.192Z,10.49
2023-07-27T04:14:06.770Z,10.66
2023-07-27T04:15:09.077Z,10.46
2023-07-27T04:16:10.764Z,10.62
2023-07-27T04:17:12.370Z,10.68
2023-07-27T04:18:14.126Z,10.65
2023-07-27T04:19:16.030Z,11.05
2023-07-27T04:20:17.655Z,10.91
2023-07-27T04:21:19.265Z,11.12
2023-07-27T04:22:20.900Z,11.05
2023-07-27T04:23:22.547Z,11.19
2023-07-27T04:24:24.228Z,11.19
2023-07-27T04:25:25.861Z,10.98
2023-07-27T04:26:27.544Z,10.83
2023-07-27T04:27:29.393Z,10.80
2023-07-27T04:28:31.024Z,11.38
2023-07-27T04:29:32.635Z,11.38
2023-07-27T04:30:34.313Z,11.47
2023-07-27T04:31:35.930Z,11.45
2023-07-27T04:32:37.914Z,11.17
2023-07-27T04:33:39.669Z,11.28
2023-07-27T04:34:41.297Z,11.20
2023-07-27T04:35:42.910Z,11.69
2023-07-27T04:36:44.548Z,11.78
2023-07-27T04:37:46.177Z,11.78
2023-07-27T04:38:47.923Z,11.75
2023-07-27T04:39:49.665Z,11.23
2023-07-27T04:40:52.439Z,11.06
2023-07-27T04:41:54.234Z,11.08
2023-07-27T04:42:55.858Z,11.24
2023-07-27T04:43:59.000Z,11.59
2023-07-27T04:45:01.282Z,11.82
2023-07-27T04:46:03.174Z,11.91
2023-07-27T04:47:05.144Z,12.21
2023-07-27T04:48:08.168Z,12.25
2023-07-27T04:49:09.950Z,12.28
2023-07-27T04:50:11.953Z,12.33
2023-07-27T04:51:13.664Z,12.26
2023-07-27T04:52:15.413Z,12.47
2023-07-27T04:53:17.112Z,12.73
2023-07-27T04:54:18.819Z,13.57
2023-07-27T04:55:20.533Z,14.41
2023-07-27T04:56:22.175Z,14.86
2023-07-27T04:57:23.794Z,15.52
2023-07-27T04:58:25.427Z,15.62
2023-07-27T04:59:27.166Z,16.17
2023-07-27T05:00:28.842Z,16.41
2023-07-27T05:01:30.563Z,15.60
2023-07-27T05:02:32.283Z,16.00
2023-07-27T05:03:34.147Z,15.04
2023-07-27T05:04:35.988Z,14.54
2023-07-27T05:05:44.601Z,13.97
2023-07-27T05:06:46.206Z,13.86
2023-07-27T05:07:47.824Z,14.06
2023-07-27T05:08:49.444Z,13.72
2023-07-27T05:09:51.081Z,13.37
2023-07-27T05:10:52.779Z,13.26
2023-07-27T05:11:54.541Z,12.96
2023-07-27T05:12:56.211Z,12.83
2023-07-27T05:13:57.808Z,13.10
2023-07-27T05:15:00.412Z,12.89
2023-07-27T05:16:04.217Z,12.88
2023-07-27T05:17:06.064Z,12.82
2023-07-27T05:18:07.753Z,12.58
2023-07-27T05:19:09.328Z,12.85
2023-07-27T05:20:11.505Z,12.49
2023-07-27T05:21:14.614Z,12.53
2023-07-27T05:22:16.496Z,12.29
2023-07-27T05:23:18.197Z,12.42
2023-07-27T05:24:20.690Z,12.34
2023-07-27T05:25:22.343Z,12.55
2023-07-27T05:26:23.990Z,12.80
2023-07-27T05:27:25.687Z,12.72
2023-07-27T05:28:27.756Z,12.77
2023-07-27T05:29:29.423Z,12.87
2023-07-27T05:30:31.030Z,13.20
2023-07-27T05:31:32.665Z,13.02
2023-07-27T05:32:34.405Z,12.99
2023-07-27T05:33:36.074Z,12.93
2023-07-27T05:34:37.768Z,13.08
2023-07-27T05:35:39.426Z,13.24
2023-07-27T05:36:41.100Z,13.19
2023-07-27T05:37:47.531Z,13.42
2023-07-27T05:38:49.220Z,13.69
2023-07-27T05:39:50.949Z,13.65
2023-07-27T05:40:52.554Z,13.77
2023-07-27T05:41:54.214Z,13.64
2023-07-27T05:42:55.847Z,13.61
2023-07-27T05:43:57.443Z,13.45
2023-07-27T05:44:59.063Z,13.34
2023-07-27T05:46:00.803Z,13.18
2023-07-27T05:47:04.212Z,13.63
2023-07-27T05:48:06.645Z,13.22
2023-07-27T05:49:11.547Z,13.49
2023-07-27T05:50:13.652Z,13.47
2023-07-27T05:51:15.280Z,13.41
2023-07-27T05:52:16.924Z,13.56
2023-07-27T05:53:18.544Z,13.57
2023-07-27T05:54:20.191Z,13.46
2023-07-27T05:55:21.848Z,13.55
2023-07-27T05:56:23.508Z,13.61
2023-07-27T05:57:25.357Z,13.47
2023-07-27T05:58:26.964Z,13.82
2023-07-27T05:59:28.548Z,14.11
2023-07-27T06:00:30.250Z,14.33
2023-07-27T06:01:32.186Z,14.24
2023-07-27T06:02:34.319Z,14.31
2023-07-27T06:03:36.092Z,14.04
2023-07-27T06:04:37.726Z,14.02
2023-07-27T06:05:45.522Z,13.77
2023-07-27T06:06:48.705Z,13.69
2023-07-27T06:07:50.292Z,13.80
2023-07-27T06:08:51.882Z,13.93
2023-07-27T06:09:53.600Z,14.00
2023-07-27T06:11:10.367Z,14.06
2023-07-27T06:12:14.747Z,14.24
2023-07-27T06:13:16.615Z,14.52
2023-07-27T06:14:18.848Z,14.99
2023-07-27T06:15:20.448Z,15.52
2023-07-27T06:16:23.121Z,15.48
2023-07-27T06:17:25.141Z,15.66
2023-07-27T06:18:27.114Z,15.44
2023-07-27T06:19:28.730Z,15.45
2023-07-27T06:20:30.530Z,15.30
2023-07-27T06:21:33.765Z,15.28
2023-07-27T06:22:35.345Z,15.14
2023-07-27T06:23:36.930Z,15.15
2023-07-27T06:24:38.755Z,15.07
2023-07-27T06:25:44.098Z,15.29
2023-07-27T06:26:45.778Z,15.51
2023-07-27T06:27:47.498Z,15.52
2023-07-27T06:28:49.193Z,15.34
2023-07-27T06:29:50.852Z,15.72
2023-07-27T06:30:52.566Z,15.86
2023-07-27T06:31:54.214Z,15.88
2023-07-27T06:32:55.940Z,15.95
2023-07-27T06:33:57.552Z,15.96
2023-07-27T06:34:59.210Z,16.32
2023-07-27T06:36:00.810Z,16.57
2023-07-27T06:37:02.863Z,16.94
2023-07-27T06:38:04.481Z,17.02
2023-07-27T06:39:06.400Z,17.36
2023-07-27T06:40:08.661Z,17.93
2023-07-27T06:41:10.553Z,18.33
2023-07-27T06:42:12.175Z,18.69
2023-07-27T06:43:13.788Z,18.22
2023-07-27T06:44:15.415Z,18.33
2023-07-27T06:45:17.065Z,18.35
2023-07-27T06:46:19.675Z,18.48
2023-07-27T06:47:21.361Z,18.33
2023-07-27T06:48:23.126Z,18.29
2023-07-27T06:49:24.952Z,18.29
2023-07-27T06:50:26.632Z,17.93
2023-07-27T06:51:28.339Z,18.01
2023-07-27T06:52:30.005Z,17.73
2023-07-27T06:53:31.612Z,17.58
2023-07-27T06:54:33.312Z,17.27
2023-07-27T06:55:35.069Z,17.18
2023-07-27T06:56:36.866Z,16.88
2023-07-27T06:57:38.652Z,16.60
2023-07-27T06:58:40.301Z,16.69
2023-07-27T06:59:41.947Z,16.48
2023-07-27T07:00:44.153Z,16.76
2023-07-27T07:01:45.836Z,16.66
2023-07-27T07:02:47.465Z,17.27
2023-07-27T07:03:49.184Z,17.18
2023-07-27T07:04:50.837Z,17.66
2023-07-27T07:05:55.163Z,18.32
2023-07-27T07:06:56.932Z,18.26
2023-07-27T07:07:58.774Z,18.63
2023-07-27T07:09:00.638Z,18.59
2023-07-27T07:10:02.306Z,18.76
2023-07-27T07:11:04.178Z,18.96
2023-07-27T07:12:06.783Z,18.62
2023-07-27T07:13:08.395Z,18.51
2023-07-27T07:14:10.010Z,18.70
2023-07-27T07:15:11.990Z,18.63
2023-07-27T07:16:13.682Z,18.21
2023-07-27T07:17:15.455Z,18.55
2023-07-27T07:18:17.162Z,18.44
2023-07-27T07:19:18.754Z,18.14
2023-07-27T07:20:20.523Z,17.99
2023-07-27T07:21:22.180Z,18.00
2023-07-27T07:22:23.789Z,17.79
2023-07-27T07:23:25.456Z,18.06
2023-07-27T07:24:27.116Z,18.03
2023-07-27T07:25:28.731Z,18.39
2023-07-27T07:26:30.847Z,18.02
2023-07-27T07:27:32.608Z,18.37
2023-07-27T07:28:34.267Z,18.44
2023-07-27T07:29:35.899Z,18.54
2023-07-27T07:30:39.806Z,18.32
2023-07-27T07:31:41.521Z,18.57
2023-07-27T07:32:43.162Z,18.91
2023-07-27T07:33:44.809Z,19.00
2023-07-27T07:34:46.417Z,19.20
2023-07-27T07:35:48.039Z,19.66
2023-07-27T07:36:49.750Z,19.60
2023-07-27T07:37:51.555Z,19.74
2023-07-27T07:38:53.349Z,19.93
2023-07-27T07:39:54.953Z,20.26
2023-07-27T07:40:56.545Z,20.14
2023-07-27T07:41:58.944Z,20.42
2023-07-27T07:43:00.645Z,21.07
2023-07-27T07:44:02.337Z,21.28
2023-07-27T07:45:04.524Z,21.18
2023-07-27T07:46:11.422Z,21.26
2023-07-27T07:47:13.605Z,21.43
2023-07-27T07:48:15.248Z,21.82
2023-07-27T07:49:16.977Z,21.82
2023-07-27T07:50:18.594Z,21.95
2023-07-27T07:51:21.373Z,22.12
2023-07-27T07:52:23.345Z,22.27
2023-07-27T07:53:34.897Z,21.91
2023-07-27T07:54:37.442Z,22.08
2023-07-27T07:55:39.455Z,21.98
2023-07-27T07:56:41.110Z,21.72
2023-07-27T07:57:42.778Z,21.57
2023-07-27T07:58:48.045Z,21.64
2023-07-27T07:59:49.745Z,21.56
2023-07-27T08:00:51.700Z,21.12
2023-07-27T08:01:54.630Z,20.86
2023-07-27T08:02:56.532Z,20.48
2023-07-27T08:03:58.270Z,21.02
2023-07-27T08:05:00.948Z,21.15
2023-07-27T08:06:02.851Z,20.22
2023-07-27T08:07:04.856Z,20.44
2023-07-27T08:08:06.488Z,20.22
2023-07-27T08:09:08.199Z,20.09
2023-07-27T08:10:10.826Z,19.72
2023-07-27T08:11:13.641Z,19.92
2023-07-27T08:12:15.425Z,19.74
2023-07-27T08:13:17.143Z,20.14
2023-07-27T08:14:19.092Z,20.12
2023-07-27T08:15:20.836Z,20.07
2023-07-27T08:16:22.670Z,20.26
2023-07-27T08:17:24.303Z,20.59
2023-07-27T08:18:26.251Z,20.22
2023-07-27T08:19:27.889Z,19.90
2023-07-27T08:20:29.543Z,20.15
2023-07-27T08:21:32.191Z,20.01
2023-07-27T08:22:34.017Z,20.23
2023-07-27T08:23:35.756Z,20.17
2023-07-27T08:24:37.385Z,20.41
2023-07-27T08:25:39.427Z,20.65
2023-07-27T08:26:41.171Z,20.74
2023-07-27T08:27:42.853Z,20.67
2023-07-27T08:28:44.481Z,20.51
2023-07-27T08:29:46.215Z,20.42
2023-07-27T08:30:48.562Z,20.32
2023-07-27T08:31:50.183Z,20.47
2023-07-27T08:32:53.330Z,20.33
2023-07-27T08:33:55.472Z,20.06
2023-07-27T08:34:57.036Z,20.05
2023-07-27T08:36:01.516Z,19.98
2023-07-27T08:37:04.277Z,19.68
2023-07-27T08:38:06.002Z,19.86
2023-07-27T08:39:07.973Z,20.12
2023-07-27T08:40:10.361Z,20.09
2023-07-27T08:41:12.228Z,19.89
2023-07-27T08:42:16.069Z,20.05
2023-07-27T08:43:17.776Z,20.32
2023-07-27T08:44:19.589Z,20.48
2023-07-27T08:45:22.492Z,20.59
2023-07-27T08:46:24.250Z,20.27
2023-07-27T08:47:26.978Z,20.40
2023-07-27T08:48:29.151Z,20.31
2023-07-27T08:49:31.873Z,20.09
2023-07-27T08:50:34.851Z,20.08
2023-07-27T08:51:38.790Z,20.29
2023-07-27T08:52:40.815Z,20.40
2023-07-27T08:53:42.511Z,20.57
2023-07-27T08:54:44.159Z,20.70
2023-07-27T08:55:46.371Z,20.87
2023-07-27T08:56:47.973Z,20.50
2023-07-27T08:57:49.578Z,20.39
2023-07-27T08:58:51.944Z,19.97
2023-07-27T08:59:53.663Z,20.09
2023-07-27T09:00:55.295Z,19.71
2023-07-27T09:01:57.010Z,19.53
2023-07-27T09:03:00.072Z,19.73
2023-07-27T09:04:02.031Z,19.61
2023-07-27T09:05:03.986Z,19.70
2023-07-27T09:06:06.221Z,19.59
2023-07-27T09:07:08.074Z,19.22
2023-07-27T09:08:11.694Z,19.24
2023-07-27T09:09:18.384Z,19.33
2023-07-27T09:10:20.020Z,19.17
2023-07-27T09:11:22.946Z,19.16
2023-07-27T09:12:25.496Z,19.55
2023-07-27T09:13:32.022Z,19.31
2023-07-27T09:14:40.185Z,19.39
2023-07-27T09:15:44.818Z,19.57
2023-07-27T09:16:47.637Z,19.62
2023-07-27T09:17:49.723Z,19.61
2023-07-27T09:18:51.480Z,19.57
2023-07-27T09:19:53.174Z,19.68
2023-07-27T09:20:56.328Z,19.80
2023-07-27T09:21:58.668Z,20.06
2023-07-27T09:23:00.193Z,20.32
2023-07-27T09:24:01.788Z,20.51
2023-07-27T09:25:03.472Z,20.62
2023-07-27T09:26:06.834Z,20.79
2023-07-27T09:27:14.418Z,21.05
2023-07-27T09:28:24.160Z,20.94
2023-07-27T09:29:25.834Z,21.06
2023-07-27T09:30:27.446Z,21.20
2023-07-27T09:31:33.731Z,20.74
2023-07-27T09:32:36.763Z,20.60
2023-07-27T09:33:38.405Z,21.05
2023-07-27T09:34:40.050Z,21.14
2023-07-27T09:35:42.122Z,20.98
2023-07-27T09:36:44.081Z,21.04
2023-07-27T09:37:47.334Z,21.08
2023-07-27T09:38:49.309Z,20.84
2023-07-27T09:39:52.805Z,20.71
2023-07-27T09:40:54.752Z,20.56
2023-07-27T09:41:56.450Z,20.46
2023-07-27T09:42:58.043Z,20.47
2023-07-27T09:43:59.824Z,20.64
2023-07-27T09:45:01.407Z,20.65
2023-07-27T09:46:03.168Z,21.03
2023-07-27T09:47:05.088Z,21.14
2023-07-27T09:48:07.442Z,20.99
2023-07-27T09:49:09.019Z,21.04
2023-07-27T09:50:11.212Z,20.78
2023-07-27T09:51:13.023Z,20.73
2023-07-27T09:52:14.776Z,20.88
2023-07-27T09:53:17.413Z,21.22
2023-07-27T09:54:19.346Z,21.41
2023-07-27T09:55:21.205Z,21.03
2023-07-27T09:56:23.751Z,21.15
2023-07-27T09:57:26.118Z,20.73
2023-07-27T09:58:29.214Z,20.88
2023-07-27T09:59:30.867Z,21.24
2023-07-27T10:00:32.870Z,21.58
2023-07-27T10:01:35.061Z,21.81
2023-07-27T10:02:36.703Z,21.62
2023-07-27T10:03:38.479Z,21.49
2023-07-27T10:04:42.212Z,21.87
2023-07-27T10:05:44.244Z,22.02
2023-07-27T10:06:46.203Z,21.72
2023-07-27T10:07:54.400Z,21.49
2023-07-27T10:08:57.223Z,21.48
2023-07-27T10:10:28.008Z,21.49
2023-07-27T10:11:32.157Z,21.47
2023-07-27T10:12:34.704Z,21.80
2023-07-27T10:13:47.318Z,21.72
2023-07-27T10:14:48.968Z,21.71
2023-07-27T10:15:53.727Z,21.48
2023-07-27T10:17:03.960Z,21.45
2023-07-27T10:18:05.670Z,21.58
2023-07-27T10:19:07.337Z,21.53
2023-07-27T10:20:21.938Z,21.58
2023-07-27T10:21:28.649Z,21.48
2023-07-27T10:22:34.627Z,21.35
2023-07-27T10:23:37.230Z,21.19
2023-07-27T10:25:00.063Z,21.17
2023-07-27T10:26:02.767Z,21.36
2023-07-27T10:27:07.809Z,21.30
2023-07-27T10:28:11.066Z,21.50
2023-07-27T10:29:18.254Z,21.65
2023-07-27T10:30:20.099Z,21.62
2023-07-27T10:31:26.709Z,21.49
2023-07-27T10:32:30.254Z,21.38
2023-07-27T10:33:31.857Z,21.53
2023-07-27T10:34:40.692Z,21.65
2023-07-27T10:36:09.824Z,21.56
2023-07-27T10:37:13.705Z,21.48
2023-07-27T10:38:15.334Z,21.63
2023-07-27T10:39:24.222Z,22.15
2023-07-27T10:40:26.951Z,22.60
2023-07-27T10:41:29.545Z,22.48
2023-07-27T10:42:34.888Z,22.57
2023-07-27T10:43:37.001Z,22.94
2023-07-27T10:44:44.781Z,23.11
2023-07-27T10:45:55.359Z,22.97
2023-07-27T10:46:58.994Z,22.70
2023-07-27T10:48:00.594Z,22.77
2023-07-27T10:49:28.083Z,23.58
2023-07-27T10:50:30.398Z,22.99
2023-07-27T10:51:32.006Z,22.76
2023-07-27T10:52:35.578Z,23.25
2023-07-27T10:53:37.197Z,23.57
2023-07-27T10:54:40.783Z,23.07
2023-07-27T10:55:43.154Z,23.15
2023-07-27T10:56:45.436Z,23.43
2023-07-27T10:57:47.422Z,23.10
2023-07-27T10:58:50.208Z,22.99
2023-07-27T10:59:52.855Z,23.06
2023-07-27T11:00:55.233Z,22.50
2023-07-27T11:01:57.259Z,22.45
2023-07-27T11:02:59.107Z,22.27
2023-07-27T11:04:00.766Z,22.08
2023-07-27T11:05:05.688Z,21.85
2023-07-27T11:06:11.251Z,21.59
2023-07-27T11:07:13.089Z,21.35
2023-07-27T11:08:14.742Z,21.46
2023-07-27T11:09:17.636Z,21.13
2023-07-27T11:10:30.176Z,20.95
2023-07-27T11:11:31.809Z,20.82
2023-07-27T11:12:35.750Z,20.79
2023-07-27T11:13:37.304Z,20.81
2023-07-27T11:14:38.897Z,20.82
2023-07-27T11:15:40.558Z,20.85
2023-07-27T11:16:42.304Z,21.06
2023-07-27T11:17:44.053Z,21.06
2023-07-27T11:18:45.921Z,20.96
2023-07-27T11:19:48.194Z,20.87
2023-07-27T11:20:49.700Z,21.11
2023-07-27T11:21:52.055Z,21.06
2023-07-27T11:22:54.165Z,20.97
2023-07-27T11:23:55.740Z,20.80
2023-07-27T11:24:57.557Z,20.73
2023-07-27T11:25:59.291Z,20.80
2023-07-27T11:27:00.991Z,20.59
2023-07-27T11:28:04.979Z,20.61
2023-07-27T11:29:07.979Z,20.69
2023-07-27T11:30:13.414Z,20.81
2023-07-27T11:31:18.289Z,20.87
2023-07-27T11:32:25.723Z,20.72
2023-07-27T11:33:34.056Z,20.83
2023-07-27T11:34:35.936Z,20.90
2023-07-27T11:35:47.654Z,20.87
2023-07-27T11:36:51.828Z,20.72
2023-07-27T11:37:53.508Z,20.74
2023-07-27T11:38:55.582Z,20.70
2023-07-27T11:39:57.704Z,20.67
2023-07-27T11:41:22.564Z,20.82
2023-07-27T11:42:31.324Z,20.85
2023-07-27T11:43:33.013Z,20.87
2023-07-27T11:44:35.140Z,20.99
2023-07-27T11:45:39.648Z,20.91
2023-07-27T11:46:43.219Z,21.09
2023-07-27T11:47:45.331Z,21.25
2023-07-27T11:49:00.844Z,21.12
2023-07-27T11:50:12.709Z,21.22
2023-07-27T11:51:15.170Z,21.25
2023-07-27T11:52:18.487Z,21.32
2023-07-27T11:54:31.803Z,21.78
2023-07-27T11:55:36.138Z,21.82
2023-07-27T11:56:38.680Z,21.87
2023-07-27T11:57:40.333Z,21.98
2023-07-27T11:58:43.304Z,21.54
2023-07-27T12:00:11.554Z,21.24
2023-07-27T12:01:16.959Z,21.21
2023-07-27T12:02:18.897Z,21.31
2023-07-27T12:03:24.074Z,21.61
2023-07-27T12:04:27.036Z,21.90
2023-07-27T12:05:28.775Z,22.07
2023-07-27T12:06:32.310Z,22.31
2023-07-27T12:09:46.648Z,22.02
2023-07-27T12:12:02.083Z,21.92
2023-07-27T12:14:11.013Z,21.65
2023-07-27T12:15:26.331Z,21.79
2023-07-27T12:17:02.099Z,21.89
2023-07-27T12:17:54.551Z,22.27
2023-07-27T12:18:56.135Z,22.33
2023-07-27T12:21:28.925Z,22.91
2023-07-27T12:23:30.261Z,22.59
2023-07-27T12:24:32.109Z,22.38
2023-07-27T12:27:43.652Z,22.60
2023-07-27T12:28:45.307Z,22.62
2023-07-27T12:29:46.964Z,22.72
2023-07-27T12:31:15.249Z,22.84
2023-07-27T12:32:12.557Z,22.79
2023-07-27T12:33:14.539Z,22.86
2023-07-27T12:34:18.598Z,23.02
2023-07-27T12:36:25.548Z,22.88
2023-07-27T12:39:37.434Z,22.20
2023-07-27T12:42:23.427Z,22.60
2023-07-27T12:43:05.647Z,22.35
2023-07-27T12:44:07.634Z,22.02
2023-07-27T12:45:09.743Z,21.91
2023-07-27T12:46:12.359Z,22.01
2023-07-27T12:47:14.121Z,21.89
2023-07-27T12:48:15.687Z,21.91
2023-07-27T12:49:17.266Z,21.93
2023-07-27T12:50:18.936Z,22.01
2023-07-27T12:51:20.649Z,21.95
2023-07-27T12:52:22.304Z,22.13
2023-07-27T12:53:23.912Z,22.21
2023-07-27T12:54:25.490Z,22.15
2023-07-27T12:55:27.117Z,21.90
2023-07-27T12:56:29.059Z,21.90
2023-07-27T12:57:30.648Z,21.88
2023-07-27T12:58:32.234Z,21.69
2023-07-27T12:59:34.138Z,21.73
2023-07-27T13:00:36.050Z,21.83
2023-07-27T13:01:37.808Z,21.61
2023-07-27T13:02:39.793Z,21.85
2023-07-27T13:03:41.685Z,21.71
2023-07-27T13:04:43.575Z,21.65
2023-07-27T13:05:45.265Z,21.63
2023-07-27T13:06:46.909Z,21.47
2023-07-27T13:07:48.776Z,21.20
2023-07-27T13:08:50.393Z,21.06
2023-07-27T13:09:52.059Z,20.91
2023-07-27T13:10:53.662Z,20.89
2023-07-27T13:11:55.298Z,20.99
2023-07-27T13:12:56.910Z,21.01
2023-07-27T13:13:58.517Z,21.00
2023-07-27T13:15:03.219Z,21.02
2023-07-27T13:16:04.886Z,21.06
2023-07-27T13:17:06.702Z,21.15
2023-07-27T13:18:08.390Z,21.19
2023-07-27T13:19:10.051Z,21.35
2023-07-27T13:20:11.760Z,21.16
2023-07-27T13:21:13.334Z,21.32
2023-07-27T13:22:15.509Z,21.38
2023-07-27T13:23:17.116Z,21.26
2023-07-27T13:24:18.746Z,21.36
2023-07-27T13:25:20.381Z,21.63
2023-07-27T13:26:22.037Z,21.54
2023-07-27T13:27:24.132Z,21.60
2023-07-27T13:28:25.905Z,21.54
2023-07-27T13:29:31.539Z,21.39
2023-07-27T13:30:34.602Z,21.38
2023-07-27T13:31:36.635Z,21.35
2023-07-27T13:32:38.348Z,21.27
2023-07-27T13:33:40.023Z,21.31
2023-07-27T13:34:41.761Z,21.25
2023-07-27T13:35:43.376Z,21.19
2023-07-27T13:36:44.973Z,21.09
2023-07-27T13:37:46.601Z,21.00
2023-07-27T13:38:48.209Z,20.95
2023-07-27T13:39:49.876Z,20.73
2023-07-27T13:40:51.476Z,20.70
2023-07-27T13:41:53.150Z,20.57
2023-07-27T13:42:54.764Z,20.59
2023-07-27T13:43:56.374Z,20.70
2023-07-27T13:44:57.989Z,20.67
2023-07-27T13:45:59.961Z,20.65
2023-07-27T13:47:01.612Z,20.68
2023-07-27T13:48:09.686Z,20.62
2023-07-27T13:49:12.095Z,20.60
2023-07-27T13:50:13.738Z,20.60